Lundu, Malaysia
Current Conditions -  °F | °C
As of 6:30 AM on Tuesday 21 Oct 2014 (Local Time) from WBGG Reporting Station
Broken Clouds Broken Clouds  
Wind Chill: 75°   Ceiling: 28000
Heat Index: 75°   Visibility: 6mi
Dew Point: 72°   Wind: 1mph
Humidity: 89%   Direction: 170°S
Pressure: 29.88"   Gusts: NA
Location:  1.68°N, 109.85°E
Report Text: WBGG 202230Z 17001KT 9999 FEW020 SCT150 BKN280 24/22 Q1012 NOSIG
Loading
Personal Weather Stations






























Interactive Weather Map
Tropical Storm Tracking
New forecast layout! Learn more

10-Day Weather Forecast

Advertisements
Track Severe Weather on mobile